createdAt,value
2022-10-22T00:02:24.813Z,100865.16
2022-10-22T00:04:51.651Z,100864.00
2022-10-22T00:07:18.841Z,100860.81
2022-10-22T00:09:45.902Z,100869.94
2022-10-22T00:12:14.178Z,100883.06
2022-10-22T00:14:41.428Z,100874.72
2022-10-22T00:17:11.209Z,100879.47
2022-10-22T00:19:39.001Z,100870.38
2022-10-22T00:22:06.262Z,100863.25
2022-10-22T00:24:34.054Z,100866.41
2022-10-22T00:27:01.437Z,100865.19
2022-10-22T00:29:28.242Z,100857.31
2022-10-22T00:34:22.493Z,100875.16
2022-10-22T00:36:50.322Z,100885.94
2022-10-22T00:39:19.572Z,100881.97
2022-10-22T00:41:48.646Z,100894.28
2022-10-22T00:44:52.747Z,100897.41
2022-10-22T00:47:20.071Z,100891.88
2022-10-22T00:49:47.167Z,100902.22
2022-10-22T00:52:14.314Z,100904.16
2022-10-22T00:54:42.588Z,100903.41
2022-10-22T00:57:09.677Z,100884.72
2022-10-22T00:59:38.259Z,100884.31
2022-10-22T01:02:04.982Z,100895.41
2022-10-22T01:04:31.614Z,100900.19
2022-10-22T01:06:58.267Z,100891.06
2022-10-22T01:09:49.205Z,100893.81
2022-10-22T01:12:43.466Z,100890.63
2022-10-22T01:15:43.495Z,100889.84
2022-10-22T01:18:24.369Z,100886.28
2022-10-22T01:21:00.365Z,100902.56
2022-10-22T01:23:39.044Z,100894.63
2022-10-22T01:26:19.621Z,100889.84
2022-10-22T01:29:07.170Z,100880.72
2022-10-22T01:31:39.888Z,100877.94
2022-10-22T01:34:09.428Z,100886.66
2022-10-22T01:36:38.090Z,100889.84
2022-10-22T01:39:05.855Z,100885.09
2022-10-22T01:41:32.405Z,100886.69
2022-10-22T01:43:58.939Z,100891.84
2022-10-22T01:46:27.813Z,100887.50
2022-10-22T01:49:12.877Z,100894.66
2022-10-22T01:52:21.307Z,100889.13
2022-10-22T01:55:07.071Z,100891.50
2022-10-22T01:58:05.205Z,100886.31
2022-10-22T02:00:31.838Z,100893.88
2022-10-22T02:03:10.239Z,100898.66
2022-10-22T02:05:44.162Z,100900.25
2022-10-22T02:08:41.185Z,100905.81
2022-10-22T02:11:08.017Z,100902.63
2022-10-22T02:13:39.869Z,100897.06
2022-10-22T02:16:09.485Z,100894.72
2022-10-22T02:18:39.984Z,100900.28
2022-10-22T02:23:35.445Z,100903.44
2022-10-22T02:26:18.269Z,100897.06
2022-10-22T02:28:57.311Z,100897.09
2022-10-22T02:31:29.897Z,100905.81
2022-10-22T02:34:01.269Z,100898.69
2022-10-22T02:36:28.874Z,100896.25
2022-10-22T02:38:56.476Z,100908.19
2022-10-22T02:41:23.476Z,100909.41
2022-10-22T02:43:56.653Z,100910.97
2022-10-22T02:46:24.340Z,100909.00
2022-10-22T02:48:50.799Z,100902.66
2022-10-22T02:51:17.338Z,100916.13
2022-10-22T02:53:43.851Z,100907.78
2022-10-22T02:56:10.881Z,100913.34
2022-10-22T02:58:37.409Z,100916.56
2022-10-22T03:01:03.981Z,100908.22
2022-10-22T03:03:30.540Z,100913.78
2022-10-22T03:05:57.046Z,100905.44
2022-10-22T03:08:23.610Z,100904.66
2022-10-22T03:10:50.178Z,100918.13
2022-10-22T03:13:16.671Z,100918.91
2022-10-22T03:15:43.164Z,100913.72
2022-10-22T03:18:09.730Z,100916.94
2022-10-22T03:20:36.320Z,100921.69
2022-10-22T03:23:03.611Z,100918.91
2022-10-22T03:25:34.439Z,100912.16
2022-10-22T03:28:08.853Z,100928.81
2022-10-22T03:30:35.395Z,100917.72
2022-10-22T03:33:01.893Z,100931.59
2022-10-22T03:35:28.484Z,100930.03
2022-10-22T03:37:55.250Z,100927.63
2022-10-22T03:40:22.076Z,100928.81
2022-10-22T03:42:48.624Z,100945.09
2022-10-22T03:45:15.195Z,100939.13
2022-10-22T03:47:42.259Z,100947.06
2022-10-22T03:50:09.593Z,100939.94
2022-10-22T03:52:38.771Z,100941.09
2022-10-22T03:55:08.790Z,100946.28
2022-10-22T03:57:35.574Z,100942.72
2022-10-22T04:00:03.911Z,100941.50
2022-10-22T04:02:30.427Z,100951.41
2022-10-22T04:04:56.922Z,100949.44
2022-10-22T04:07:23.489Z,100951.84
2022-10-22T04:09:49.944Z,100953.41
2022-10-22T04:12:16.464Z,100957.41
2022-10-22T04:14:43.049Z,100950.63
2022-10-22T04:17:09.583Z,100952.22
2022-10-22T04:19:36.213Z,100953.41
2022-10-22T04:22:02.717Z,100951.41
2022-10-22T04:24:31.615Z,100956.56
2022-10-22T04:26:58.985Z,100960.56
2022-10-22T04:29:25.962Z,100965.31
2022-10-22T04:31:53.009Z,100960.56
2022-10-22T04:34:19.503Z,100964.16
2022-10-22T04:36:46.013Z,100962.94
2022-10-22T04:39:12.653Z,100971.69
2022-10-22T04:41:39.550Z,100974.06
2022-10-22T04:44:09.884Z,100978.03
2022-10-22T04:46:40.055Z,100974.06
2022-10-22T04:49:06.602Z,100970.91
2022-10-22T04:51:33.108Z,100970.91
2022-10-22T04:53:59.693Z,100976.06
2022-10-22T04:56:28.830Z,100978.84
2022-10-22T04:59:01.239Z,100976.84
2022-10-22T05:01:30.799Z,100975.28
2022-10-22T05:03:59.464Z,100976.06
2022-10-22T05:06:26.818Z,100977.25
2022-10-22T05:08:56.291Z,100987.97
2022-10-22T05:11:27.880Z,100988.41
2022-10-22T05:13:58.207Z,100989.56
2022-10-22T05:16:25.157Z,100979.63
2022-10-22T05:18:51.853Z,100992.31
2022-10-22T05:21:20.456Z,100997.06
2022-10-22T05:23:48.622Z,100991.53
2022-10-22T05:26:18.456Z,101003.81
2022-10-22T05:28:45.310Z,100999.44
2022-10-22T05:31:13.390Z,101012.16
2022-10-22T05:33:40.812Z,101004.19
2022-10-22T05:36:08.551Z,101016.88
2022-10-22T05:38:35.663Z,101010.16
2022-10-22T05:41:08.750Z,101011.72
2022-10-22T05:43:35.941Z,101010.53
2022-10-22T05:46:11.202Z,101011.72
2022-10-22T05:48:38.528Z,101013.72
2022-10-22T05:51:12.833Z,101014.50
2022-10-22T05:53:42.368Z,101022.41
2022-10-22T05:56:16.080Z,101020.06
2022-10-22T05:58:44.840Z,101020.00
2022-10-22T06:01:21.554Z,101026.31
2022-10-22T06:03:49.304Z,101031.09
2022-10-22T06:06:26.060Z,101032.69
2022-10-22T06:08:54.619Z,101038.19
2022-10-22T06:11:23.277Z,101036.19
2022-10-22T06:13:50.665Z,101047.31
2022-10-22T06:16:17.477Z,101052.88
2022-10-22T06:18:44.169Z,101056.06
2022-10-22T06:21:12.746Z,101061.63
2022-10-22T06:23:40.271Z,101059.63
2022-10-22T06:26:07.744Z,101063.63
2022-10-22T06:28:35.002Z,101063.25
2022-10-22T06:31:03.035Z,101060.47
2022-10-22T06:33:32.466Z,101059.31
2022-10-22T06:36:07.804Z,101069.22
2022-10-22T06:38:34.656Z,101075.97
2022-10-22T06:41:10.371Z,101064.09
2022-10-22T06:43:37.189Z,101060.94
2022-10-22T06:46:09.688Z,101074.06
2022-10-22T06:48:37.974Z,101073.66
2022-10-22T06:51:07.412Z,101072.50
2022-10-22T06:53:34.983Z,101081.22
2022-10-22T06:56:09.124Z,101081.66
2022-10-22T06:58:36.435Z,101083.63
2022-10-22T07:01:12.554Z,101086.47
2022-10-22T07:03:40.798Z,101070.19
2022-10-22T07:06:10.749Z,101067.03
2022-10-22T07:08:38.162Z,101078.16
2022-10-22T07:11:11.696Z,101076.59
2022-10-22T07:13:38.476Z,101078.59
2022-10-22T07:16:06.701Z,101084.53
2022-10-22T07:18:34.031Z,101086.13
2022-10-22T07:21:00.945Z,101086.13
2022-10-22T07:23:28.613Z,101079.78
2022-10-22T07:28:22.838Z,101094.09
2022-10-22T07:30:49.663Z,101096.88
2022-10-22T07:33:16.481Z,101106.81
2022-10-22T07:35:43.282Z,101102.03
2022-10-22T07:38:09.834Z,101091.31
2022-10-22T07:40:36.880Z,101093.28
2022-10-22T07:43:03.987Z,101097.25
2022-10-22T07:45:30.771Z,101098.03
2022-10-22T07:47:57.467Z,101111.94
2022-10-22T07:50:23.997Z,101117.13
2022-10-22T07:52:51.019Z,101120.28
2022-10-22T07:55:18.128Z,101125.06
2022-10-22T07:57:44.640Z,101125.44
2022-10-22T08:00:11.705Z,101120.28
2022-10-22T08:02:38.530Z,101124.25
2022-10-22T08:05:05.984Z,101121.03
2022-10-22T08:07:32.561Z,101128.19
2022-10-22T08:09:59.101Z,101130.56
2022-10-22T08:12:25.638Z,101139.28
2022-10-22T08:14:52.235Z,101148.81
2022-10-22T08:17:18.725Z,101149.94
2022-10-22T08:19:45.286Z,101144.38
2022-10-22T08:22:11.886Z,101151.94
2022-10-22T08:24:38.587Z,101149.53
2022-10-22T08:27:05.122Z,101155.09
2022-10-22T08:29:31.737Z,101166.28
2022-10-22T08:31:58.387Z,101164.72
2022-10-22T08:34:24.930Z,101163.53
2022-10-22T08:36:51.493Z,101171.88
2022-10-22T08:39:18.035Z,101181.44
2022-10-22T08:41:56.691Z,101183.38
2022-10-22T08:44:48.243Z,101192.53
2022-10-22T08:47:18.610Z,101202.88
2022-10-22T08:49:48.197Z,101206.88
2022-10-22T08:52:17.681Z,101205.69
2022-10-22T08:54:56.350Z,101202.91
2022-10-22T08:57:42.401Z,101213.25
2022-10-22T09:00:20.869Z,101214.84
2022-10-22T09:03:08.342Z,101214.78
2022-10-22T09:06:12.224Z,101224.34
2022-10-22T09:08:40.510Z,101226.75
2022-10-22T09:11:13.095Z,101222.69
2022-10-22T09:13:44.952Z,101227.84
2022-10-22T09:16:14.381Z,101222.97
2022-10-22T09:18:54.717Z,101228.56
2022-10-22T09:21:33.572Z,101225.38
2022-10-22T09:24:04.684Z,101226.16
2022-10-22T09:26:36.624Z,101231.97
2022-10-22T09:29:03.890Z,101230.41
2022-10-22T09:31:32.784Z,101238.03
2022-10-22T09:34:05.826Z,101240.09
2022-10-22T09:36:32.485Z,101234.53
2022-10-22T09:39:00.208Z,101247.22
2022-10-22T09:41:30.049Z,101248.34
2022-10-22T09:43:57.200Z,101253.66
2022-10-22T09:46:28.296Z,101258.31
2022-10-22T09:49:03.450Z,101256.31
2022-10-22T09:52:00.001Z,101248.75
2022-10-22T09:54:32.783Z,101257.03
2022-10-22T09:57:22.033Z,101261.03
2022-10-22T09:59:50.799Z,101264.47
2022-10-22T10:02:37.631Z,101250.38
2022-10-22T10:05:06.622Z,101258.03
2022-10-22T10:07:35.544Z,101254.16
2022-10-22T10:10:02.926Z,101260.88
2022-10-22T10:12:32.463Z,101267.66
2022-10-22T10:15:05.304Z,101255.69
2022-10-22T10:17:50.530Z,101265.28
2022-10-22T10:20:20.024Z,101276.44
2022-10-22T10:23:23.000Z,101265.31
2022-10-22T10:26:20.653Z,101275.63
2022-10-22T10:29:17.963Z,101282.03
2022-10-22T10:32:08.504Z,101283.56
2022-10-22T10:34:53.238Z,101293.50
2022-10-22T10:37:25.021Z,101300.72
2022-10-22T10:39:57.203Z,101300.44
2022-10-22T10:42:57.784Z,101300.84
2022-10-22T10:45:36.535Z,101294.59
2022-10-22T10:48:15.506Z,101289.59
2022-10-22T10:50:53.422Z,101289.19
2022-10-22T10:53:35.012Z,101288.94
2022-10-22T10:56:04.447Z,101291.09
2022-10-22T10:58:37.096Z,101278.66
2022-10-22T11:01:36.740Z,101278.88
2022-10-22T11:04:13.413Z,101280.41
2022-10-22T11:06:42.058Z,101283.84
2022-10-22T11:09:25.154Z,101285.81
2022-10-22T11:12:01.508Z,101285.38
2022-10-22T11:14:55.905Z,101291.31
2022-10-22T11:17:24.778Z,101288.25
2022-10-22T11:20:04.908Z,101282.50
2022-10-22T11:22:44.381Z,101287.97
2022-10-22T11:25:25.653Z,101285.78
2022-10-22T11:28:01.356Z,101293.75
2022-10-22T11:30:37.761Z,101296.44
2022-10-22T11:33:11.456Z,101297.19
2022-10-22T11:35:42.567Z,101295.78
2022-10-22T11:38:14.354Z,101282.13
2022-10-22T11:40:48.722Z,101289.34
2022-10-22T11:43:51.572Z,101288.84
2022-10-22T11:46:18.076Z,101293.16
2022-10-22T11:48:44.689Z,101303.66
2022-10-22T11:51:40.319Z,101308.84
2022-10-22T11:54:28.664Z,101312.66
2022-10-22T11:57:15.689Z,101308.78
2022-10-22T11:59:51.365Z,101308.66
2022-10-22T12:02:30.445Z,101315.59
2022-10-22T12:05:22.686Z,101307.56
2022-10-22T12:08:03.869Z,101308.16
2022-10-22T12:10:48.802Z,101307.66
2022-10-22T12:13:23.801Z,101299.16
2022-10-22T12:15:54.690Z,101298.03
2022-10-22T12:18:25.999Z,101302.50
2022-10-22T12:20:55.474Z,101299.34
2022-10-22T12:23:28.841Z,101307.44
2022-10-22T12:25:55.444Z,101308.13
2022-10-22T12:28:22.728Z,101300.97
2022-10-22T12:30:49.262Z,101295.94
2022-10-22T12:33:22.252Z,101294.28
2022-10-22T12:35:52.891Z,101303.88
2022-10-22T12:38:23.211Z,101303.44
2022-10-22T12:40:51.523Z,101302.13
2022-10-22T12:43:23.698Z,101295.69
2022-10-22T12:45:51.415Z,101306.25
2022-10-22T12:48:35.940Z,101306.56
2022-10-22T12:51:04.957Z,101296.63
2022-10-22T12:53:37.854Z,101296.47
2022-10-22T12:56:17.947Z,101296.25
2022-10-22T12:58:53.029Z,101296.00
2022-10-22T13:01:19.932Z,101296.47
2022-10-22T13:03:52.495Z,101293.84
2022-10-22T13:06:18.985Z,101293.97
2022-10-22T13:09:07.129Z,101288.44
2022-10-22T13:11:42.498Z,101286.56
2022-10-22T13:14:29.570Z,101281.19
2022-10-22T13:17:14.986Z,101283.25
2022-10-22T13:19:55.302Z,101279.31
2022-10-22T13:22:38.187Z,101285.41
2022-10-22T13:25:13.638Z,101274.78
2022-10-22T13:27:44.623Z,101267.25
2022-10-22T13:30:24.601Z,101271.31
2022-10-22T13:32:57.255Z,101265.91
2022-10-22T13:35:27.655Z,101277.09
2022-10-22T13:37:54.230Z,101272.81
2022-10-22T13:40:21.468Z,101275.50
2022-10-22T13:42:48.014Z,101276.59
2022-10-22T13:45:15.600Z,101272.22
2022-10-22T13:47:48.055Z,101280.69
2022-10-22T13:50:16.760Z,101280.13
2022-10-22T13:52:46.249Z,101290.50
2022-10-22T13:55:27.348Z,101300.06
2022-10-22T13:58:01.754Z,101294.19
2022-10-22T14:00:28.341Z,101297.66
2022-10-22T14:02:58.091Z,101295.81
2022-10-22T14:05:25.160Z,101302.84
2022-10-22T14:07:52.799Z,101299.00
2022-10-22T14:10:22.381Z,101307.41
2022-10-22T14:12:52.475Z,101298.69
2022-10-22T14:15:23.991Z,101293.31
2022-10-22T14:17:54.743Z,101289.03
2022-10-22T14:20:23.954Z,101290.78
2022-10-22T14:22:51.468Z,101287.81
2022-10-22T14:25:20.728Z,101299.91
2022-10-22T14:27:47.614Z,101300.78
2022-10-22T14:30:17.071Z,101299.66
2022-10-22T14:32:43.987Z,101289.66
2022-10-22T14:35:14.195Z,101297.81
2022-10-22T14:37:41.094Z,101287.63
2022-10-22T14:40:09.508Z,101290.41
2022-10-22T14:42:40.671Z,101286.28
2022-10-22T14:45:16.311Z,101290.41
2022-10-22T14:47:42.971Z,101284.22
2022-10-22T14:50:09.985Z,101290.59
2022-10-22T14:52:39.540Z,101295.75
2022-10-22T14:55:06.957Z,101295.25
2022-10-22T14:57:33.429Z,101301.81
2022-10-22T15:00:00.051Z,101301.91
2022-10-22T15:02:26.737Z,101296.53
2022-10-22T15:04:53.674Z,101301.53
2022-10-22T15:07:21.505Z,101301.47
2022-10-22T15:09:48.087Z,101301.91
2022-10-22T15:12:14.690Z,101306.50
2022-10-22T15:14:41.187Z,101305.38
2022-10-22T15:17:07.740Z,101298.38
2022-10-22T15:19:34.324Z,101299.59
2022-10-22T15:22:00.809Z,101307.16
2022-10-22T15:24:27.332Z,101313.50
2022-10-22T15:26:54.876Z,101308.91
2022-10-22T15:29:21.409Z,101314.25
2022-10-22T15:31:53.755Z,101313.88
2022-10-22T15:34:23.496Z,101332.44
2022-10-22T15:36:50.854Z,101325.03
2022-10-22T15:39:17.948Z,101331.00
2022-10-22T15:41:44.486Z,101329.63
2022-10-22T15:44:20.495Z,101329.28
2022-10-22T15:46:47.168Z,101333.25
2022-10-22T15:49:14.310Z,101329.31
2022-10-22T15:51:40.825Z,101338.97
2022-10-22T15:54:10.136Z,101327.81
2022-10-22T15:56:36.958Z,101327.88
2022-10-22T15:59:04.123Z,101330.78
2022-10-22T16:01:32.737Z,101328.31
2022-10-22T16:04:00.375Z,101330.06
2022-10-22T16:06:32.050Z,101331.28
2022-10-22T16:09:01.126Z,101332.53
2022-10-22T16:11:29.132Z,101340.53
2022-10-22T16:13:57.396Z,101352.63
2022-10-22T16:16:25.757Z,101348.28
2022-10-22T16:18:52.976Z,101347.41
2022-10-22T16:21:21.329Z,101341.50
2022-10-22T16:23:48.665Z,101342.34
2022-10-22T16:26:16.435Z,101355.59
2022-10-22T16:28:44.017Z,101350.81
2022-10-22T16:31:12.807Z,101356.81
2022-10-22T16:33:47.803Z,101357.63
2022-10-22T16:36:19.221Z,101361.31
2022-10-22T16:38:46.999Z,101363.28
2022-10-22T16:41:15.206Z,101370.50
2022-10-22T16:43:43.096Z,101382.03
2022-10-22T16:46:10.501Z,101373.28
2022-10-22T16:48:42.128Z,101394.81
2022-10-22T16:51:12.431Z,101394.03
2022-10-22T16:53:39.003Z,101396.00
2022-10-22T16:56:09.681Z,101394.84
2022-10-22T16:58:36.504Z,101404.00
2022-10-22T17:01:09.786Z,101398.03
2022-10-22T17:03:37.260Z,101392.84
2022-10-22T17:06:04.786Z,101403.59
2022-10-22T17:08:32.069Z,101396.81
2022-10-22T17:10:58.614Z,101401.22
2022-10-22T17:13:25.197Z,101413.94
2022-10-22T17:15:51.708Z,101414.34
2022-10-22T17:18:18.462Z,101405.16
2022-10-22T17:20:44.972Z,101413.88
2022-10-22T17:23:11.531Z,101403.94
2022-10-22T17:25:44.665Z,101404.75
2022-10-22T17:28:12.140Z,101392.06
2022-10-22T17:30:40.772Z,101393.63
2022-10-22T17:33:08.593Z,101391.63
2022-10-22T17:35:39.985Z,101378.13
2022-10-22T17:38:07.671Z,101387.28
2022-10-22T17:40:39.036Z,101399.63
2022-10-22T17:43:05.641Z,101396.44
2022-10-22T17:45:32.208Z,101406.72
2022-10-22T17:47:58.718Z,101423.44
2022-10-22T17:50:25.245Z,101427.44
2022-10-22T17:52:51.792Z,101425.44
2022-10-22T17:55:18.371Z,101434.94
2022-10-22T17:57:44.895Z,101438.47
2022-10-22T18:00:13.810Z,101450.81
2022-10-22T18:02:42.603Z,101448.00
2022-10-22T18:05:09.795Z,101464.72
2022-10-22T18:07:36.385Z,101461.53
2022-10-22T18:10:03.530Z,101462.63
2022-10-22T18:12:30.044Z,101466.19
2022-10-22T18:14:56.746Z,101465.44
2022-10-22T18:17:23.335Z,101469.03
2022-10-22T18:19:49.874Z,101466.28
2022-10-22T18:22:16.410Z,101460.75
2022-10-22T18:24:43.008Z,101461.09
2022-10-22T18:27:09.525Z,101455.28
2022-10-22T18:29:36.924Z,101443.72
2022-10-22T18:32:08.336Z,101453.59
2022-10-22T18:34:38.849Z,101455.94
2022-10-22T18:37:05.438Z,101454.28
2022-10-22T18:39:32.031Z,101457.84
2022-10-22T18:41:58.565Z,101455.13
2022-10-22T18:44:25.047Z,101446.66
2022-10-22T18:46:51.617Z,101443.03
2022-10-22T18:49:19.468Z,101454.53
2022-10-22T18:51:48.673Z,101460.53
2022-10-22T18:54:23.926Z,101447.09
2022-10-22T18:56:51.508Z,101446.63
2022-10-22T18:59:21.234Z,101443.06
2022-10-22T19:01:47.965Z,101451.44
2022-10-22T19:04:14.589Z,101450.22
2022-10-22T19:06:45.230Z,101450.94
2022-10-22T19:09:13.808Z,101439.09
2022-10-22T19:11:40.430Z,101441.84
2022-10-22T19:14:06.991Z,101444.19
2022-10-22T19:16:35.199Z,101443.06
2022-10-22T19:19:05.019Z,101454.94
2022-10-22T19:21:32.245Z,101452.19
2022-10-22T19:24:00.186Z,101456.13
2022-10-22T19:26:28.824Z,101447.28
2022-10-22T19:28:56.271Z,101440.59
2022-10-22T19:31:24.558Z,101439.84
2022-10-22T19:33:54.492Z,101440.59
2022-10-22T19:36:27.921Z,101434.25
2022-10-22T19:38:54.760Z,101440.94
2022-10-22T19:41:23.038Z,101444.50
2022-10-22T19:43:52.093Z,101438.50
2022-10-22T19:46:19.821Z,101450.81
2022-10-22T19:48:46.747Z,101446.78
2022-10-22T19:51:19.332Z,101450.06
2022-10-22T19:53:47.706Z,101446.41
2022-10-22T19:56:18.469Z,101447.16
2022-10-22T19:58:45.518Z,101443.91
2022-10-22T20:01:14.417Z,101436.28
2022-10-22T20:03:41.800Z,101444.19
2022-10-22T20:06:10.620Z,101446.00
2022-10-22T20:08:38.162Z,101431.63
2022-10-22T20:11:10.675Z,101434.78
2022-10-22T20:16:09.580Z,101438.13
2022-10-22T20:18:36.718Z,101437.63
2022-10-22T20:21:07.644Z,101437.31
2022-10-22T20:23:34.895Z,101444.78
2022-10-22T20:26:01.600Z,101445.59
2022-10-22T20:28:28.282Z,101438.81
2022-10-22T20:30:54.824Z,101441.47
2022-10-22T20:33:21.495Z,101451.28
2022-10-22T20:36:01.344Z,101444.28
2022-10-22T20:38:28.715Z,101441.78
2022-10-22T20:41:02.236Z,101438.16
2022-10-22T20:43:28.896Z,101439.78
2022-10-22T20:45:55.432Z,101458.09
2022-10-22T20:48:26.578Z,101456.72
2022-10-22T20:50:54.226Z,101470.75
2022-10-22T20:53:21.351Z,101476.00
2022-10-22T20:55:50.409Z,101472.56
2022-10-22T20:58:22.359Z,101466.09
2022-10-22T21:00:51.702Z,101470.50
2022-10-22T21:03:18.243Z,101466.31
2022-10-22T21:05:44.825Z,101460.25
2022-10-22T21:08:17.223Z,101459.44
2022-10-22T21:10:46.381Z,101468.63
2022-10-22T21:13:13.850Z,101460.16
2022-10-22T21:15:40.468Z,101464.94
2022-10-22T21:18:07.701Z,101466.22
2022-10-22T21:20:34.574Z,101472.94
2022-10-22T21:23:01.164Z,101461.03
2022-10-22T21:25:27.677Z,101456.22
2022-10-22T21:27:54.237Z,101457.78
2022-10-22T21:30:23.472Z,101461.88
2022-10-22T21:32:50.029Z,101456.78
2022-10-22T21:35:16.534Z,101453.16
2022-10-22T21:37:43.289Z,101457.50
2022-10-22T21:40:10.630Z,101458.63
2022-10-22T21:42:37.423Z,101449.94
2022-10-22T21:45:06.973Z,101451.56
2022-10-22T21:47:35.697Z,101459.06
2022-10-22T21:50:02.273Z,101459.81
2022-10-22T21:52:28.769Z,101462.09
2022-10-22T21:54:55.261Z,101456.28
2022-10-22T21:57:21.730Z,101445.03
2022-10-22T21:59:48.213Z,101449.66
2022-10-22T22:02:14.724Z,101449.00
2022-10-22T22:04:41.232Z,101443.94
2022-10-22T22:07:07.791Z,101447.53
2022-10-22T22:09:34.318Z,101435.59
2022-10-22T22:12:00.830Z,101439.59
2022-10-22T22:14:27.324Z,101446.78
2022-10-22T22:16:53.828Z,101431.69
2022-10-22T22:19:20.355Z,101438.88
2022-10-22T22:21:46.859Z,101430.59
2022-10-22T22:24:13.807Z,101441.16
2022-10-22T22:26:41.624Z,101439.69
2022-10-22T22:29:08.153Z,101432.13
2022-10-22T22:31:35.723Z,101424.34
2022-10-22T22:34:04.861Z,101425.66
2022-10-22T22:36:39.179Z,101429.63
2022-10-22T22:39:08.613Z,101432.34
2022-10-22T22:41:35.120Z,101431.56
2022-10-22T22:44:01.974Z,101438.66
2022-10-22T22:46:29.112Z,101447.38
2022-10-22T22:48:55.644Z,101453.59
2022-10-22T22:51:22.290Z,101442.38
2022-10-22T22:53:48.930Z,101437.59
2022-10-22T22:56:19.157Z,101427.97
2022-10-22T22:58:46.085Z,101422.38
2022-10-22T23:01:24.773Z,101416.13
2022-10-22T23:03:56.558Z,101414.88
2022-10-22T23:06:25.383Z,101424.91
2022-10-22T23:08:53.129Z,101418.47
2022-10-22T23:11:20.696Z,101402.91
2022-10-22T23:13:47.836Z,101416.00
2022-10-22T23:16:17.703Z,101408.84
2022-10-22T23:18:45.768Z,101413.16
2022-10-22T23:21:17.794Z,101416.84
2022-10-22T23:23:52.994Z,101402.34
2022-10-22T23:26:25.665Z,101398.44
2022-10-22T23:28:52.260Z,101400.41
2022-10-22T23:31:21.618Z,101394.47
2022-10-22T23:33:48.655Z,101395.78
2022-10-22T23:36:15.403Z,101393.69
2022-10-22T23:38:42.431Z,101385.00
2022-10-22T23:41:09.210Z,101392.41
2022-10-22T23:43:37.872Z,101388.44
2022-10-22T23:46:09.504Z,101381.84
2022-10-22T23:48:37.415Z,101384.22
2022-10-22T23:51:10.489Z,101378.66
2022-10-22T23:53:37.498Z,101365.47
2022-10-22T23:56:09.757Z,101364.31
2022-10-22T23:58:37.093Z,101368.00
